createdAt,value
2018-01-28T03:38:19.240Z,7.28
2018-01-28T03:38:59.859Z,7.24
2018-01-28T03:39:40.454Z,7.21
2018-01-28T03:40:21.025Z,7.28
2018-01-28T03:41:01.599Z,7.25
2018-01-28T03:41:42.200Z,7.2
2018-01-28T03:42:22.795Z,7.18
2018-01-28T03:43:03.392Z,7.25
2018-01-28T03:43:43.986Z,7.23
2018-01-28T03:44:24.591Z,7.23
2018-01-28T03:45:05.160Z,7.18
2018-01-28T03:45:45.782Z,7.2
2018-01-28T03:46:26.395Z,7.21
2018-01-28T03:47:07.000Z,7.21
2018-01-28T03:47:47.597Z,7.2
2018-01-28T03:48:28.214Z,7.18
2018-01-28T03:49:08.800Z,7.18
2018-01-28T03:49:49.407Z,7.18
2018-01-28T03:50:30.027Z,7.18
2018-01-28T03:51:10.630Z,7.2
2018-01-28T03:51:51.227Z,7.18
2018-01-28T03:52:31.822Z,7.18
2018-01-28T03:53:12.419Z,7.25
2018-01-28T03:53:53.028Z,7.17
2018-01-28T03:54:33.629Z,7.25
2018-01-28T03:55:14.233Z,7.29
2018-01-28T03:55:54.859Z,7.18
2018-01-28T03:56:35.440Z,7.18
2018-01-28T03:57:16.064Z,7.17
2018-01-28T03:57:56.663Z,7.29
2018-01-28T03:58:37.249Z,7.2
2018-01-28T03:59:17.844Z,7.1
2018-01-28T03:59:58.457Z,7.28
2018-01-28T04:00:39.095Z,7.17
2018-01-28T04:01:19.697Z,7.28
2018-01-28T04:02:00.305Z,7.17
2018-01-28T04:02:40.916Z,7.23
2018-01-28T04:03:21.554Z,7.18
2018-01-28T04:04:02.158Z,7.2
2018-01-28T04:04:42.754Z,7.21
2018-01-28T04:05:23.356Z,7.15
2018-01-28T04:06:03.997Z,7.15
2018-01-28T04:06:44.601Z,7.18
2018-01-28T04:07:25.198Z,7.17
2018-01-28T04:08:05.835Z,7.17
2018-01-28T04:08:46.454Z,7.17
2018-01-28T04:09:27.115Z,7.07
2018-01-28T04:10:07.712Z,7.15
2018-01-28T04:10:48.337Z,7.18
2018-01-28T04:11:28.982Z,7.11
2018-01-28T04:12:09.591Z,7.06
2018-01-28T04:12:50.249Z,7.06
2018-01-28T04:13:30.842Z,7.13
2018-01-28T04:14:11.447Z,7.02
2018-01-28T04:14:52.049Z,7.03
2018-01-28T04:15:32.668Z,7
2018-01-28T04:16:13.283Z,7.07
2018-01-28T04:16:53.885Z,7.02
2018-01-28T04:17:34.492Z,7.07
2018-01-28T04:18:15.075Z,7.06
2018-01-28T04:18:55.682Z,7.07
2018-01-28T04:19:36.275Z,7.05
2018-01-28T04:20:16.883Z,7.06
2018-01-28T04:20:57.492Z,7.05
2018-01-28T04:21:38.101Z,7.05
2018-01-28T04:22:18.679Z,7.1
2018-01-28T04:22:59.273Z,7.1
2018-01-28T04:23:39.882Z,7.07
2018-01-28T04:24:20.457Z,7.05
2018-01-28T04:25:01.099Z,7.06
2018-01-28T04:25:41.738Z,7.07
2018-01-28T04:26:22.330Z,7.07
2018-01-28T04:27:03.004Z,7.03
2018-01-28T04:27:43.579Z,7.05
2018-01-28T04:28:24.187Z,6.93
2018-01-28T04:29:04.782Z,7
2018-01-28T04:29:45.382Z,6.96
2018-01-28T04:30:25.963Z,7
2018-01-28T04:31:06.571Z,7
2018-01-28T04:31:47.230Z,6.97
2018-01-28T04:32:27.857Z,7.05
2018-01-28T04:33:08.484Z,7
2018-01-28T04:33:49.089Z,7
2018-01-28T04:34:29.659Z,7
2018-01-28T04:35:10.261Z,6.99
2018-01-28T04:35:50.867Z,6.96
2018-01-28T04:36:31.458Z,7
2018-01-28T04:37:12.063Z,7
2018-01-28T04:37:52.655Z,7.02
2018-01-28T04:38:33.262Z,6.95
2018-01-28T04:39:13.830Z,6.96
2018-01-28T04:39:54.426Z,6.96
2018-01-28T04:40:35.014Z,6.89
2018-01-28T04:41:15.645Z,6.95
2018-01-28T04:41:56.260Z,6.95
2018-01-28T04:42:36.878Z,6.96
2018-01-28T04:43:17.464Z,7
2018-01-28T04:43:58.117Z,6.99
2018-01-28T04:44:38.750Z,6.99
2018-01-28T04:45:19.348Z,6.97
2018-01-28T04:45:59.954Z,6.96
2018-01-28T04:46:40.550Z,6.96
2018-01-28T04:47:21.148Z,6.89
2018-01-28T04:48:01.749Z,6.99
2018-01-28T04:48:42.365Z,6.96
2018-01-28T04:49:22.973Z,6.85
2018-01-28T04:50:03.548Z,6.82
2018-01-28T04:50:44.151Z,6.85
2018-01-28T04:51:24.759Z,6.87
2018-01-28T04:52:05.338Z,6.82
2018-01-28T04:52:45.950Z,6.87
2018-01-28T04:53:26.555Z,6.88
2018-01-28T04:54:07.185Z,6.87
2018-01-28T04:54:47.791Z,6.92
2018-01-28T04:55:28.409Z,6.85
2018-01-28T04:56:09.018Z,6.84
2018-01-28T04:56:49.615Z,6.87
2018-01-28T04:57:30.225Z,6.88
2018-01-28T04:58:10.818Z,6.89
2018-01-28T04:58:51.443Z,6.85
2018-01-28T04:59:32.056Z,6.87
2018-01-28T05:00:12.682Z,6.87
2018-01-28T05:00:53.274Z,6.87
2018-01-28T05:01:33.862Z,6.82
2018-01-28T05:02:14.453Z,6.82
2018-01-28T05:02:55.117Z,6.84
2018-01-28T05:03:35.685Z,6.89
2018-01-28T05:04:16.276Z,6.89
2018-01-28T05:04:56.888Z,6.81
2018-01-28T05:05:37.467Z,6.79
2018-01-28T05:06:18.072Z,6.88
2018-01-28T05:06:58.675Z,6.82
2018-01-28T05:07:39.241Z,6.87
2018-01-28T05:08:19.842Z,6.84
2018-01-28T05:09:00.445Z,6.87
2018-01-28T05:09:41.043Z,6.89
2018-01-28T05:10:21.643Z,6.85
2018-01-28T05:11:02.213Z,6.92
2018-01-28T05:11:42.846Z,6.84
2018-01-28T05:12:23.429Z,6.92
2018-01-28T05:13:04.005Z,6.88
2018-01-28T05:13:44.573Z,6.96
2018-01-28T05:14:25.165Z,6.89
2018-01-28T05:15:05.730Z,6.89
2018-01-28T05:15:46.361Z,7
2018-01-28T05:16:26.951Z,6.95
2018-01-28T05:17:07.524Z,6.97
2018-01-28T05:17:48.118Z,6.99
2018-01-28T05:18:28.686Z,6.99
2018-01-28T05:19:09.291Z,6.96
2018-01-28T05:19:49.849Z,7.05
2018-01-28T05:20:30.425Z,6.99
2018-01-28T05:21:11.005Z,7
2018-01-28T05:21:51.584Z,6.97
2018-01-28T05:22:32.213Z,6.97
2018-01-28T05:23:12.777Z,7
2018-01-28T05:23:53.377Z,7.02
2018-01-28T05:24:33.952Z,7.02
2018-01-28T05:25:14.565Z,6.97
2018-01-28T05:25:55.161Z,7.06
2018-01-28T05:26:35.766Z,7.07
2018-01-28T05:27:16.362Z,7.06
2018-01-28T05:27:56.939Z,7.05
2018-01-28T05:28:37.536Z,7.06
2018-01-28T05:29:18.108Z,7.11
2018-01-28T05:29:58.684Z,7.1
2018-01-28T05:30:39.287Z,7.07
2018-01-28T05:31:19.881Z,7.05
2018-01-28T05:32:00.476Z,7.1
2018-01-28T05:32:41.094Z,7.05
2018-01-28T05:33:21.688Z,7.07
2018-01-28T05:34:02.248Z,7.02
2018-01-28T05:34:42.889Z,7.05
2018-01-28T05:35:23.494Z,7.06
2018-01-28T05:36:04.094Z,7.06
2018-01-28T05:36:44.700Z,7.13
2018-01-28T05:37:25.317Z,7.07
2018-01-28T05:38:05.921Z,7.02
2018-01-28T05:38:46.535Z,7.06
2018-01-28T05:39:27.147Z,7.1
2018-01-28T05:40:07.785Z,7.07
2018-01-28T05:40:48.376Z,7.05
2018-01-28T05:41:28.960Z,7
2018-01-28T05:42:09.569Z,7.14
2018-01-28T05:42:50.214Z,7.05
2018-01-28T05:43:30.824Z,7.07
2018-01-28T05:44:11.432Z,7.06
2018-01-28T05:44:52.057Z,7.2
2018-01-28T05:45:32.714Z,7.11
2018-01-28T05:46:13.307Z,7.15
2018-01-28T05:46:53.892Z,7.15
2018-01-28T05:47:34.485Z,7.18
2018-01-28T05:48:15.109Z,7.17
2018-01-28T05:48:55.706Z,7.17
2018-01-28T05:49:36.300Z,7.24
2018-01-28T05:50:16.899Z,7.2
2018-01-28T05:50:57.488Z,7.15
2018-01-28T05:51:38.112Z,7.15
2018-01-28T05:52:18.678Z,7.24
2018-01-28T05:52:59.301Z,7.21
2018-01-28T05:53:39.880Z,7.2
2018-01-28T05:54:20.494Z,7.23
2018-01-28T05:55:01.089Z,7.21
2018-01-28T05:55:41.652Z,7.23
2018-01-28T05:56:22.292Z,7.18
2018-01-28T05:57:02.857Z,7.2
2018-01-28T05:57:43.464Z,7.18
2018-01-28T05:58:24.078Z,7.17
2018-01-28T05:59:04.682Z,7.18
2018-01-28T05:59:45.306Z,7.18
2018-01-28T06:00:25.894Z,7.28
2018-01-28T06:01:06.487Z,7.24
2018-01-28T06:01:47.078Z,7.2
2018-01-28T06:02:27.734Z,7.25
2018-01-28T06:03:08.326Z,7.14
2018-01-28T06:03:48.908Z,7.2
2018-01-28T06:04:29.507Z,7.17
2018-01-28T06:05:10.124Z,7.17
2018-01-28T06:05:50.715Z,7.25
2018-01-28T06:06:31.328Z,7.21
2018-01-28T06:07:11.933Z,7.17
2018-01-28T06:07:52.546Z,7.18
2018-01-28T06:08:33.118Z,7.2
2018-01-28T06:09:13.731Z,7.23
2018-01-28T06:09:54.336Z,7.2
2018-01-28T06:10:34.964Z,7.17
2018-01-28T06:11:15.571Z,7.21
2018-01-28T06:11:56.177Z,7.29
2018-01-28T06:12:36.785Z,7.25
2018-01-28T06:13:17.365Z,7.21
2018-01-28T06:13:57.980Z,7.21
2018-01-28T06:14:38.570Z,7.25
2018-01-28T06:15:19.166Z,7.18
2018-01-28T06:15:59.784Z,7.17
2018-01-28T06:16:40.366Z,7.21
2018-01-28T06:17:20.973Z,7.18
2018-01-28T06:18:01.541Z,7.23
2018-01-28T06:18:42.135Z,7.2
2018-01-28T06:19:22.727Z,7.13
2018-01-28T06:20:03.320Z,7.31
2018-01-28T06:20:43.928Z,7.18
2018-01-28T06:21:24.528Z,7.25
2018-01-28T06:22:05.141Z,7.18
2018-01-28T06:22:45.746Z,7.17
2018-01-28T06:23:26.336Z,7.18
2018-01-28T06:24:06.937Z,7.23
2018-01-28T06:24:47.541Z,7.15
2018-01-28T06:25:28.153Z,7.2
2018-01-28T06:26:08.778Z,7.18
2018-01-28T06:26:49.377Z,7.17
2018-01-28T06:27:29.977Z,7.18
2018-01-28T06:28:10.583Z,7.24
2018-01-28T06:28:51.195Z,7.21
2018-01-28T06:31:04.021Z,7.2
2018-01-28T06:31:44.616Z,7.2
2018-01-28T06:32:25.185Z,7.15
2018-01-28T06:33:05.759Z,7.15
2018-01-28T06:33:46.361Z,7.15
2018-01-28T06:34:26.933Z,7.18
2018-01-28T06:35:07.489Z,7.15
2018-01-28T06:35:48.108Z,7.14
2018-01-28T06:36:28.763Z,7.17
2018-01-28T06:37:09.384Z,7.14
2018-01-28T06:37:49.984Z,7.14
2018-01-28T06:38:30.582Z,7.11
2018-01-28T06:39:11.194Z,7.06
2018-01-28T06:39:51.773Z,7.05
2018-01-28T06:40:32.371Z,7.03
2018-01-28T06:41:12.966Z,7.1
2018-01-28T06:41:53.558Z,7.02
2018-01-28T06:42:34.121Z,7.06
2018-01-28T06:43:14.737Z,7.02
2018-01-28T06:43:55.319Z,7.06
2018-01-28T06:44:35.932Z,7.11
2018-01-28T06:45:16.536Z,7.05
2018-01-28T06:45:57.115Z,7.03
2018-01-28T06:46:37.710Z,7.03
2018-01-28T06:47:18.289Z,7.03
2018-01-28T06:47:58.852Z,7.1
2018-01-28T06:48:39.428Z,7.05
2018-01-28T06:49:20.025Z,7.06
2018-01-28T06:50:00.654Z,7.06
2018-01-28T06:50:41.256Z,7.1
2018-01-28T06:51:21.858Z,7.06
2018-01-28T06:52:02.485Z,7.15
2018-01-28T06:52:43.091Z,7.2
2018-01-28T06:53:23.683Z,7.13
2018-01-28T06:54:04.279Z,7.14
2018-01-28T06:54:44.916Z,7.13
2018-01-28T06:55:25.482Z,7.15
2018-01-28T06:56:06.065Z,7.15
2018-01-28T06:56:46.660Z,7.15
2018-01-28T06:57:27.242Z,7.15
2018-01-28T06:58:07.843Z,7.15
2018-01-28T06:58:48.440Z,7.23
2018-01-28T06:59:29.025Z,7.2
2018-01-28T07:00:09.629Z,7.15
2018-01-28T07:00:50.219Z,7.18
2018-01-28T07:01:30.814Z,7.2
2018-01-28T07:02:11.399Z,7.21
2018-01-28T07:02:51.978Z,7.15
2018-01-28T07:03:32.563Z,7.15
2018-01-28T07:04:13.154Z,7.18
2018-01-28T07:04:53.727Z,7.2
2018-01-28T07:05:34.331Z,7.17
2018-01-28T07:06:14.922Z,7.15
2018-01-28T07:06:55.527Z,7.13
2018-01-28T07:07:36.136Z,7.13
2018-01-28T07:08:16.722Z,7.13
2018-01-28T07:08:57.312Z,7.13
2018-01-28T07:09:38.022Z,7.06
2018-01-28T07:10:18.602Z,7.14
2018-01-28T07:10:59.201Z,7.13
2018-01-28T07:11:39.777Z,7.14
2018-01-28T07:12:20.366Z,7.13
2018-01-28T07:13:00.949Z,7.07
2018-01-28T07:13:41.555Z,7.07
2018-01-28T07:14:22.140Z,7.1
2018-01-28T07:15:02.733Z,7.11
2018-01-28T07:15:43.324Z,7.07
2018-01-28T07:16:23.922Z,7.1
2018-01-28T07:17:04.505Z,7.06
2018-01-28T07:17:45.080Z,7.07
2018-01-28T07:18:25.674Z,7.1
2018-01-28T07:19:06.264Z,7.05
2018-01-28T07:19:46.834Z,7.03
2018-01-28T07:20:27.422Z,7.03
2018-01-28T07:21:08.038Z,6.97
2018-01-28T07:21:48.621Z,7.03
2018-01-28T07:22:29.223Z,7.06
2018-01-28T07:23:09.814Z,7.07
2018-01-28T07:23:50.407Z,7.03
2018-01-28T07:24:30.999Z,7
2018-01-28T07:25:11.606Z,7.02
2018-01-28T07:25:52.210Z,7.07
2018-01-28T07:26:32.831Z,7.11
2018-01-28T07:27:13.416Z,7.06
2018-01-28T07:27:54.011Z,7.03
2018-01-28T07:28:34.894Z,7.06
2018-01-28T07:29:15.495Z,7.05
2018-01-28T07:29:56.308Z,7.03
2018-01-28T07:30:37.107Z,7.06
2018-01-28T07:31:18.728Z,7.07
2018-01-28T07:31:59.652Z,7.07
2018-01-28T07:32:40.491Z,7.06
2018-01-28T07:33:21.647Z,7.03
2018-01-28T07:34:02.414Z,7.05
2018-01-28T07:34:42.991Z,7.02
2018-01-28T07:35:23.657Z,7.05
2018-01-28T07:36:04.244Z,7.03
2018-01-28T07:36:44.865Z,7.05
2018-01-28T07:37:25.506Z,7.06
2018-01-28T07:38:06.083Z,7.03
2018-01-28T07:38:46.741Z,7.05
2018-01-28T07:39:27.503Z,7.06
2018-01-28T07:40:08.081Z,7.14
2018-01-28T07:40:48.752Z,7.1
2018-01-28T07:41:29.324Z,7.1
2018-01-28T07:42:09.938Z,7.13
2018-01-28T07:42:50.533Z,7.13
2018-01-28T07:43:31.105Z,7.15
2018-01-28T07:44:11.692Z,7.14
2018-01-28T07:44:52.272Z,7.13
2018-01-28T07:45:32.873Z,7.15
2018-01-28T07:46:13.549Z,7.17
2018-01-28T07:46:54.203Z,7.11
2018-01-28T07:47:34.796Z,7.11
2018-01-28T07:48:15.411Z,7.18
2018-01-28T07:48:55.996Z,7.18
2018-01-28T07:49:36.608Z,7.14
2018-01-28T07:50:17.253Z,7.24
2018-01-28T07:50:57.839Z,7.2
2018-01-28T07:51:38.424Z,7.18
2018-01-28T07:52:19.021Z,7.23
2018-01-28T07:52:59.631Z,7.18
2018-01-28T07:53:40.218Z,7.24
2018-01-28T07:54:20.815Z,7.21
2018-01-28T07:55:01.422Z,7.17
2018-01-28T07:55:42.123Z,7.25
2018-01-28T07:56:22.726Z,7.24
2018-01-28T07:57:03.340Z,7.21
2018-01-28T07:57:44.109Z,7.25
2018-01-28T07:58:24.795Z,7.21
2018-01-28T07:59:05.441Z,7.17
2018-01-28T07:59:46.055Z,7.17
2018-01-28T08:00:26.686Z,7.23
2018-01-28T08:01:07.298Z,7.25
2018-01-28T08:01:47.983Z,7.28
2018-01-28T08:02:28.552Z,7.35
2018-01-28T08:03:09.133Z,7.28
2018-01-28T08:03:49.759Z,7.21
2018-01-28T08:04:30.439Z,7.29
2018-01-28T08:05:11.006Z,7.25
2018-01-28T08:05:51.567Z,7.2
2018-01-28T08:06:32.175Z,7.29
2018-01-28T08:07:12.756Z,7.28
2018-01-28T08:07:53.351Z,7.21
2018-01-28T08:08:33.920Z,7.24
2018-01-28T08:09:14.493Z,7.33
2018-01-28T08:09:55.129Z,7.29
2018-01-28T08:10:35.701Z,7.32
2018-01-28T08:11:16.284Z,7.31
2018-01-28T08:11:56.873Z,7.31
2018-01-28T08:12:37.467Z,7.38
2018-01-28T08:13:18.074Z,7.33
2018-01-28T08:13:58.676Z,7.36
2018-01-28T08:14:39.277Z,7.39
2018-01-28T08:15:19.876Z,7.42
2018-01-28T08:16:00.439Z,7.32
2018-01-28T08:16:41.034Z,7.42
2018-01-28T08:17:21.587Z,7.36
2018-01-28T08:18:02.181Z,7.39
2018-01-28T08:18:42.768Z,7.35
2018-01-28T08:19:23.373Z,7.42
2018-01-28T08:20:03.937Z,7.42
2018-01-28T08:20:44.507Z,7.42
2018-01-28T08:21:25.080Z,7.43
2018-01-28T08:22:05.696Z,7.43
2018-01-28T08:22:46.261Z,7.45
2018-01-28T08:23:26.846Z,7.38
2018-01-28T08:24:07.416Z,7.4
2018-01-28T08:24:47.994Z,7.4
2018-01-28T08:25:28.565Z,7.51
2018-01-28T08:26:09.138Z,7.39
2018-01-28T08:26:49.706Z,7.4
2018-01-28T08:27:30.268Z,7.54
2018-01-28T08:28:10.846Z,7.48
2018-01-28T08:28:51.455Z,7.4
2018-01-28T08:29:32.003Z,7.45
2018-01-28T08:30:12.614Z,7.5
2018-01-28T08:30:53.209Z,7.54
2018-01-28T08:31:33.787Z,7.56
2018-01-28T08:32:14.368Z,7.5
2018-01-28T08:32:54.948Z,7.6
2018-01-28T08:33:35.528Z,7.53
2018-01-28T08:34:16.137Z,7.57
2018-01-28T08:34:56.697Z,7.58
2018-01-28T08:35:37.280Z,7.51
2018-01-28T08:36:17.854Z,7.51
2018-01-28T08:36:58.428Z,7.6
2018-01-28T08:37:39.045Z,7.57
2018-01-28T08:38:19.600Z,7.51
2018-01-28T08:39:00.187Z,7.58
2018-01-28T08:39:40.777Z,7.58
2018-01-28T08:40:21.352Z,7.58
2018-01-28T08:41:01.929Z,7.61
2018-01-28T08:41:42.608Z,7.58
2018-01-28T08:42:23.176Z,7.6
2018-01-28T08:43:03.766Z,7.57
2018-01-28T08:43:44.366Z,7.63
2018-01-28T08:44:24.985Z,7.56
2018-01-28T08:45:05.577Z,7.61
2018-01-28T08:45:46.188Z,7.58
2018-01-28T08:46:26.792Z,7.6
2018-01-28T08:47:07.381Z,7.54
2018-01-28T08:47:47.977Z,7.67
2018-01-28T08:48:28.628Z,7.67
2018-01-28T08:49:09.189Z,7.58
2018-01-28T08:49:49.866Z,7.61
2018-01-28T08:50:30.410Z,7.53
2018-01-28T08:51:11.004Z,7.61
2018-01-28T08:51:51.585Z,7.61
2018-01-28T08:52:32.203Z,7.63
2018-01-28T08:53:12.794Z,7.6
2018-01-28T08:53:53.375Z,7.63
2018-01-28T08:54:33.952Z,7.61
2018-01-28T08:55:14.618Z,7.6
2018-01-28T08:55:55.216Z,7.61
2018-01-28T08:56:35.812Z,7.63
2018-01-28T08:57:16.415Z,7.61
2018-01-28T08:57:57.001Z,7.63
2018-01-28T08:58:37.985Z,7.61
2018-01-28T08:59:18.722Z,7.67
2018-01-28T08:59:59.328Z,7.66
2018-01-28T09:00:39.915Z,7.67
2018-01-28T09:01:20.489Z,7.63
2018-01-28T09:02:01.064Z,7.7
2018-01-28T09:02:41.660Z,7.63
2018-01-28T09:03:22.237Z,7.7
2018-01-28T09:04:02.805Z,7.7
2018-01-28T09:04:43.379Z,7.67
2018-01-28T09:05:23.941Z,7.72
2018-01-28T09:06:04.971Z,7.72
2018-01-28T09:06:45.540Z,7.69
2018-01-28T09:07:26.171Z,7.7
2018-01-28T09:08:06.756Z,7.75
2018-01-28T09:08:47.379Z,7.94
2018-01-28T09:09:27.962Z,7.98
2018-01-28T09:10:08.550Z,8.15
2018-01-28T09:10:49.141Z,8.2
2018-01-28T09:11:29.729Z,8.33
2018-01-28T09:12:10.808Z,8.42
2018-01-28T09:12:52.312Z,8.58
2018-01-28T09:13:33.149Z,8.71
2018-01-28T09:14:14.187Z,8.95
2018-01-28T09:14:54.831Z,8.91
2018-01-28T09:15:36.187Z,9.14
2018-01-28T09:16:17.425Z,9.22
2018-01-28T09:16:58.379Z,9.29
2018-01-28T09:17:39.280Z,9.39
2018-01-28T09:18:19.873Z,9.47
2018-01-28T09:19:00.473Z,9.44
2018-01-28T09:19:41.047Z,9.46
2018-01-28T09:20:21.632Z,9.39
2018-01-28T09:21:02.234Z,9.39
2018-01-28T09:21:42.834Z,9.28
2018-01-28T09:22:23.462Z,9.14
2018-01-28T09:23:04.100Z,9.08
2018-01-28T09:23:44.695Z,9.03
2018-01-28T09:24:25.274Z,8.94
2018-01-28T09:25:05.859Z,8.95
2018-01-28T09:25:46.450Z,8.89
2018-01-28T09:26:27.061Z,8.91
2018-01-28T09:27:07.660Z,8.74
2018-01-28T09:27:48.256Z,8.78
2018-01-28T09:28:28.864Z,8.67
2018-01-28T09:29:09.473Z,8.67
2018-01-28T09:29:50.054Z,8.7
2018-01-28T09:30:30.660Z,8.63
2018-01-28T09:31:11.297Z,8.63
2018-01-28T09:31:51.881Z,8.52
2018-01-28T09:32:32.496Z,8.53
2018-01-28T09:33:13.103Z,8.52
2018-01-28T09:33:53.774Z,8.51
2018-01-28T09:34:34.352Z,8.52
2018-01-28T09:35:14.945Z,8.52
2018-01-28T09:35:55.562Z,8.48
2018-01-28T09:36:36.178Z,8.49
2018-01-28T09:37:16.763Z,8.49
2018-01-28T09:37:57.351Z,8.51
2018-01-28T09:38:37.947Z,8.51
2018-01-28T09:39:18.549Z,8.56
2018-01-28T09:39:59.170Z,8.56
2018-01-28T09:40:39.764Z,8.53
2018-01-28T09:41:20.374Z,8.55
2018-01-28T09:42:00.964Z,8.56
2018-01-28T09:42:41.588Z,8.61
2018-01-28T09:43:22.175Z,8.7
2018-01-28T09:44:02.782Z,8.64
2018-01-28T09:44:43.362Z,8.76
2018-01-28T09:45:23.942Z,8.74
2018-01-28T09:46:04.553Z,8.76
2018-01-28T09:46:45.116Z,8.74
2018-01-28T09:47:25.712Z,8.79
2018-01-28T09:48:06.524Z,8.76
2018-01-28T09:48:47.200Z,8.73
2018-01-28T09:49:27.829Z,8.76
2018-01-28T09:50:08.401Z,8.76
2018-01-28T09:50:49.045Z,8.74
2018-01-28T09:51:29.636Z,8.73
2018-01-28T09:52:10.221Z,8.78
2018-01-28T09:52:50.827Z,8.79
2018-01-28T09:53:31.420Z,8.79
2018-01-28T09:54:12.022Z,8.78
2018-01-28T09:54:52.616Z,8.78
2018-01-28T09:55:33.267Z,8.81
2018-01-28T09:56:13.871Z,8.78
2018-01-28T09:56:54.458Z,8.81
2018-01-28T09:57:35.047Z,8.88
2018-01-28T09:58:15.654Z,8.84
2018-01-28T09:58:56.227Z,8.89
2018-01-28T09:59:36.838Z,8.84
2018-01-28T10:00:17.446Z,8.87
2018-01-28T10:00:58.058Z,8.87
2018-01-28T10:01:38.630Z,8.79
2018-01-28T10:02:19.267Z,8.87
2018-01-28T10:02:59.831Z,8.87
2018-01-28T10:03:40.478Z,8.88
2018-01-28T10:04:21.054Z,8.84
2018-01-28T10:05:01.653Z,8.89
2018-01-28T10:05:42.270Z,8.87
2018-01-28T10:06:22.860Z,8.88
2018-01-28T10:07:03.442Z,8.91
2018-01-28T10:07:44.050Z,8.92
2018-01-28T10:08:24.650Z,8.85
2018-01-28T10:09:05.258Z,8.92
2018-01-28T10:09:45.867Z,8.88
2018-01-28T10:10:26.469Z,8.87
2018-01-28T10:11:07.057Z,8.89
2018-01-28T10:11:47.637Z,8.87
2018-01-28T10:12:28.234Z,8.85
2018-01-28T10:13:08.875Z,8.88
2018-01-28T10:13:49.474Z,8.85
2018-01-28T10:14:30.084Z,8.91
2018-01-28T10:15:10.659Z,8.91
2018-01-28T10:15:51.322Z,8.88
2018-01-28T10:16:31.909Z,8.87
2018-01-28T10:17:12.486Z,8.91
2018-01-28T10:17:53.103Z,8.91
2018-01-28T10:18:33.710Z,8.97
2018-01-28T10:19:14.287Z,8.88
2018-01-28T10:19:54.884Z,8.94
2018-01-28T10:20:35.486Z,8.92
2018-01-28T10:21:16.053Z,9
2018-01-28T10:21:56.713Z,8.88
2018-01-28T10:22:37.293Z,8.95
2018-01-28T10:23:17.894Z,9
2018-01-28T10:23:58.507Z,8.99
2018-01-28T10:24:39.098Z,8.91
2018-01-28T10:25:19.689Z,9.11
2018-01-28T10:26:00.273Z,9.06
2018-01-28T10:26:40.933Z,9.08
2018-01-28T10:27:21.662Z,9.1
2018-01-28T10:28:02.301Z,9.13
2018-01-28T10:28:42.899Z,9.14
2018-01-28T10:29:23.511Z,9.1
2018-01-28T10:30:04.110Z,9.14
2018-01-28T10:30:44.750Z,9.1
2018-01-28T10:31:25.348Z,9.14
2018-01-28T10:32:05.980Z,9.14
2018-01-28T10:32:46.610Z,9.1
2018-01-28T10:33:27.212Z,8.97
2018-01-28T10:34:07.808Z,9.11
2018-01-28T10:34:48.397Z,9.03
2018-01-28T10:35:28.979Z,9
2018-01-28T10:36:09.566Z,8.97
2018-01-28T10:36:50.182Z,8.99
2018-01-28T10:37:30.794Z,9
2018-01-28T10:38:11.365Z,8.94
2018-01-28T10:38:52.020Z,8.94
2018-01-28T10:39:32.549Z,8.92
2018-01-28T10:40:13.122Z,9.06
2018-01-28T10:40:53.716Z,8.92
2018-01-28T10:41:34.296Z,8.97
2018-01-28T10:42:14.894Z,8.95
2018-01-28T10:42:55.512Z,8.94
2018-01-28T10:43:36.106Z,8.91
2018-01-28T10:44:16.717Z,8.92
2018-01-28T10:44:57.305Z,8.95
2018-01-28T10:45:37.894Z,8.92
2018-01-28T10:46:18.500Z,8.95
2018-01-28T10:46:59.089Z,8.97
2018-01-28T10:47:39.692Z,8.91
2018-01-28T10:48:20.282Z,8.87
2018-01-28T10:49:00.881Z,8.92
2018-01-28T10:49:41.476Z,8.92
2018-01-28T10:50:22.046Z,8.97
2018-01-28T10:51:02.635Z,8.97
2018-01-28T10:51:43.218Z,8.92
2018-01-28T10:52:23.825Z,8.92
2018-01-28T10:53:04.421Z,8.95
2018-01-28T10:53:45.001Z,8.92
2018-01-28T10:54:25.612Z,8.89
2018-01-28T10:55:06.225Z,9
2018-01-28T10:55:46.826Z,8.99
2018-01-28T10:56:27.417Z,8.88
2018-01-28T10:57:08.013Z,8.99
2018-01-28T10:57:48.625Z,8.89
2018-01-28T10:58:29.229Z,8.89
2018-01-28T10:59:09.809Z,8.94
2018-01-28T10:59:50.420Z,8.94
2018-01-28T11:00:31.007Z,8.97
2018-01-28T11:01:11.587Z,8.92
2018-01-28T11:01:52.176Z,8.89
2018-01-28T11:02:32.787Z,8.94
2018-01-28T11:03:13.412Z,8.99
2018-01-28T11:03:54.003Z,8.92
2018-01-28T11:04:34.657Z,8.91
2018-01-28T11:05:15.239Z,8.97
2018-01-28T11:05:55.832Z,8.94
2018-01-28T11:06:36.458Z,8.99
2018-01-28T11:07:17.039Z,8.94
2018-01-28T11:07:57.637Z,8.95
2018-01-28T11:08:38.229Z,8.95
2018-01-28T11:09:18.817Z,9
2018-01-28T11:09:59.397Z,8.92
2018-01-28T11:10:40.006Z,8.95
2018-01-28T11:11:20.605Z,8.99
2018-01-28T11:12:01.202Z,8.97
2018-01-28T11:12:41.787Z,8.89
2018-01-28T11:13:22.391Z,8.94
2018-01-28T11:14:03.012Z,8.94
2018-01-28T11:14:43.603Z,8.97
2018-01-28T11:15:24.216Z,8.97
2018-01-28T11:16:04.800Z,8.95
2018-01-28T11:16:45.409Z,8.95
2018-01-28T11:17:26.011Z,8.95
2018-01-28T11:18:06.608Z,8.99
2018-01-28T11:18:47.211Z,8.97
2018-01-28T11:19:27.844Z,8.97
2018-01-28T11:20:08.444Z,8.95
2018-01-28T11:20:49.041Z,9.02
2018-01-28T11:21:29.718Z,9.11
2018-01-28T11:22:10.329Z,9
2018-01-28T11:22:50.966Z,9.1
2018-01-28T11:23:31.542Z,9.13
2018-01-28T11:24:12.149Z,9.1
2018-01-28T11:24:52.790Z,9
2018-01-28T11:25:33.411Z,9.04
2018-01-28T11:26:14.004Z,9.1
2018-01-28T11:26:54.586Z,9.11
2018-01-28T11:27:35.189Z,9.16
2018-01-28T11:28:15.784Z,9.1
2018-01-28T11:28:56.346Z,9.1
2018-01-28T11:29:36.996Z,9.1
2018-01-28T11:30:17.594Z,9.08
2018-01-28T11:30:58.217Z,9.22
2018-01-28T11:31:38.834Z,9.11
2018-01-28T11:32:19.428Z,9.08
2018-01-28T11:33:00.011Z,9.06
2018-01-28T11:33:40.608Z,9.06
2018-01-28T11:34:21.206Z,9.19
2018-01-28T11:35:01.821Z,9.1
2018-01-28T11:35:42.406Z,9.02
2018-01-28T11:36:23.027Z,9.11
2018-01-28T11:37:03.655Z,9.08
2018-01-28T11:37:44.259Z,9.11
2018-01-28T11:38:24.957Z,9.08
2018-01-28T11:39:05.561Z,9.1
2018-01-28T11:39:46.202Z,9.11
2018-01-28T11:40:26.802Z,9.14
2018-01-28T11:41:07.452Z,9.14
2018-01-28T11:41:48.060Z,9.11
2018-01-28T11:42:28.690Z,9.19
2018-01-28T11:43:09.332Z,9.23
2018-01-28T11:43:49.984Z,9.23
2018-01-28T11:44:30.563Z,9.16
2018-01-28T11:45:11.160Z,9.25
2018-01-28T11:45:51.747Z,9.25
2018-01-28T11:46:32.395Z,9.25
2018-01-28T11:47:12.982Z,9.22
2018-01-28T11:47:53.563Z,9.21
2018-01-28T11:48:34.171Z,9.25
2018-01-28T11:49:14.769Z,9.19
2018-01-28T11:49:55.332Z,9.26
2018-01-28T11:50:35.954Z,9.14
2018-01-28T11:51:16.483Z,9.25
2018-01-28T11:51:57.062Z,9.25
2018-01-28T11:52:37.638Z,9.25
2018-01-28T11:53:18.415Z,9.18
2018-01-28T11:53:59.004Z,9.22
2018-01-28T11:54:39.612Z,9.14
2018-01-28T11:55:20.233Z,9.11
2018-01-28T11:56:00.820Z,9.21
2018-01-28T11:56:41.446Z,9.21
2018-01-28T11:57:22.011Z,9.19
2018-01-28T11:58:02.582Z,9.22
2018-01-28T11:58:43.166Z,9.18
2018-01-28T11:59:23.795Z,9.08
2018-01-28T12:00:04.402Z,9.25
2018-01-28T12:00:45.460Z,9.13
2018-01-28T12:01:26.390Z,9.08
2018-01-28T12:02:07.549Z,9.06
2018-01-28T12:02:48.150Z,9.06
2018-01-28T12:03:28.723Z,9.19
2018-01-28T12:04:09.342Z,9.04
2018-01-28T12:04:50.199Z,8.95
2018-01-28T12:05:31.040Z,8.94
2018-01-28T12:06:13.533Z,8.95
2018-01-28T12:06:53.766Z,8.92
2018-01-28T12:07:34.376Z,8.95
2018-01-28T12:08:14.940Z,8.91
2018-01-28T12:08:55.544Z,8.97
2018-01-28T12:09:36.693Z,8.95
2018-01-28T12:10:17.256Z,8.97
2018-01-28T12:10:57.893Z,8.94
2018-01-28T12:11:38.714Z,8.95
2018-01-28T12:12:19.421Z,9.02
2018-01-28T12:12:59.996Z,8.99
2018-01-28T12:13:40.703Z,8.92
2018-01-28T12:14:21.323Z,8.89
2018-01-28T12:15:01.930Z,8.95
2018-01-28T12:15:42.532Z,8.95
2018-01-28T12:16:23.136Z,8.99
2018-01-28T12:17:03.720Z,8.92
2018-01-28T12:17:44.314Z,8.92
2018-01-28T12:18:24.891Z,8.95
2018-01-28T12:19:05.457Z,8.89
2018-01-28T12:19:46.045Z,8.94
2018-01-28T12:20:26.671Z,8.95
2018-01-28T12:21:07.250Z,8.91
2018-01-28T12:21:47.837Z,8.88
2018-01-28T12:22:28.435Z,8.88
2018-01-28T12:23:09.015Z,8.94
2018-01-28T12:23:49.606Z,8.88
2018-01-28T12:24:30.187Z,8.87
2018-01-28T12:25:10.758Z,8.97
2018-01-28T12:25:51.376Z,8.85
2018-01-28T12:26:31.961Z,8.94
2018-01-28T12:27:12.548Z,8.94
2018-01-28T12:27:53.139Z,8.85
2018-01-28T12:28:33.726Z,8.97
2018-01-28T12:29:14.307Z,8.87
2018-01-28T12:29:54.921Z,8.88
2018-01-28T12:30:35.506Z,8.87
2018-01-28T12:31:16.112Z,8.91
2018-01-28T12:31:56.699Z,8.91
2018-01-28T12:32:37.283Z,8.85
2018-01-28T12:33:17.878Z,8.87
2018-01-28T12:33:58.459Z,8.89
2018-01-28T12:34:39.039Z,8.85
2018-01-28T12:35:19.662Z,8.82
2018-01-28T12:36:00.805Z,8.88
2018-01-28T12:36:41.565Z,8.87
2018-01-28T12:37:22.598Z,8.78
2018-01-28T12:38:03.536Z,8.78
2018-01-28T12:38:44.431Z,8.78
2018-01-28T12:39:25.387Z,8.74
2018-01-28T12:40:06.117Z,8.76
2018-01-28T12:40:47.091Z,8.78
2018-01-28T12:41:27.788Z,8.79
2018-01-28T12:42:08.567Z,8.78
2018-01-28T12:42:49.351Z,8.76
2018-01-28T12:43:30.191Z,8.76